Terminal Aerodrome Forecast
Issued by NWS Cleveland, OH

Home | Current Version | Previous Version | Text Only | Print | Product List | Glossary Off
Versions: 1 2 3 4 5 6 7 8 9 10 11 12 13 14 15 16 17 18 19 20 21

000
FTUS41 KCLE 290500
TAFCAK
TAF
KCAK 290540Z 2906/3006 00000KT P6SM BKN200
     FM290800 00000KT 5SM BR SCT200
      TEMPO 2909/2913 2SM BR
     FM291400 30005KT P6SM SKC
     FM300000 VRB03KT P6SM SCT200=

USA.gov is the U.S. government's official web portal to all federal, state and local government web resources and services.